Time;durP1;ratioP1;P1;durP2;ratioP2;P2;SDS_P1;SDS_P2;PMS_P1;PMS_P2;Temp;Humidity;BMP_temperature;BMP_pressure;BME280_temperature;BME280_humidity;BME280_pressure;Samples;Min_cycle;Max_cycle;Signal;HPM_P1;HPM_P2
2022/05/26 00:00:07;;;;;;;5.67;2.02;;;;;;;13.85;51.89;100951.25;1824745;77;20978;-87
2022/05/26 00:02:34;;;;;;;5.50;1.67;;;;;;;13.82;51.31;100949.28;1825163;78;20935;-87
2022/05/26 00:05:02;;;;;;;3.65;1.95;;;;;;;13.82;51.31;100949.28;1826624;77;21236;-87
2022/05/26 00:07:29;;;;;;;3.12;2.02;;;;;;;13.82;51.49;100959.83;1825171;78;20911;-88
2022/05/26 00:09:56;;;;;;;2.83;2.00;;;;;;;13.82;51.90;100957.20;1825071;77;20844;-87
2022/05/26 00:12:24;;;;;;;2.75;1.67;;;;;;;13.79;52.55;100960.05;1825355;78;20899;-88
2022/05/26 00:14:52;;;;;;;4.05;2.75;;;;;;;13.71;52.36;100946.06;1825055;77;20903;-87
2022/05/26 00:17:21;;;;;;;6.58;2.00;;;;;;;13.72;52.49;100956.12;1825774;77;21219;-87
2022/05/26 00:19:48;;;;;;;4.62;1.60;;;;;;;13.72;52.49;100956.12;1825620;77;21329;-88
2022/05/26 00:22:15;;;;;;;4.78;2.00;;;;;;;13.68;52.10;100945.80;1825271;78;20883;-88
2022/05/26 00:24:41;;;;;;;2.60;2.12;;;;;;;13.67;51.68;100945.44;1825062;77;20990;-89
2022/05/26 00:27:08;;;;;;;2.58;2.05;;;;;;;13.66;51.50;100945.05;1825148;78;20895;-88
2022/05/26 00:29:35;;;;;;;2.92;1.87;;;;;;;13.66;51.56;100938.47;1825210;78;21125;-87
2022/05/26 00:32:03;;;;;;;3.02;2.00;;;;;;;13.66;51.41;100933.20;1825898;78;20914;-85
2022/05/26 00:34:30;;;;;;;7.25;2.20;;;;;;;13.65;51.30;100931.97;1825758;78;20915;-86
2022/05/26 00:36:58;;;;;;;6.22;1.92;;;;;;;13.66;50.99;100929.72;1826269;78;20864;-87
2022/05/26 00:39:25;;;;;;;5.55;2.25;;;;;;;13.66;51.18;100927.92;1828177;77;20880;-87
2022/05/26 00:41:55;;;;;;;4.03;2.33;;;;;;;13.65;51.21;100922.30;1828136;77;21098;-85
2022/05/26 00:44:24;;;;;;;2.80;2.05;;;;;;;13.66;51.34;100928.41;1825644;77;20962;-87
2022/05/26 00:47:12;;;;;;;4.28;2.20;;;;;;;13.64;51.32;100927.18;1823376;78;20852;-87
2022/05/26 00:49:50;;;;;;;3.37;2.42;;;;;;;13.64;51.31;100927.66;1821447;78;21412;-87
2022/05/26 00:52:20;;;;;;;5.42;2.05;;;;;;;13.62;51.33;100922.97;1821584;78;21380;-87
2022/05/26 00:54:47;;;;;;;6.10;1.95;;;;;;;13.60;51.33;100927.50;1821619;78;21124;-87
2022/05/26 00:57:28;;;;;;;6.75;2.45;;;;;;;13.57;51.29;100923.28;1822221;78;20966;-86
2022/05/26 01:00:06;;;;;;;3.50;2.37;;;;;;;13.55;51.30;100925.66;1823489;78;20920;-87
2022/05/26 01:02:41;;;;;;;4.97;2.27;;;;;;;13.51;51.48;100914.95;1817945;78;21392;-88
2022/05/26 01:05:12;;;;;;;8.50;2.42;;;;;;;13.48;51.66;100919.95;1792067;78;21358;-87
2022/05/26 01:07:40;;;;;;;5.90;2.22;;;;;;;13.44;51.53;100919.31;1791230;78;21236;-87
2022/05/26 01:10:11;;;;;;;2.80;2.35;;;;;;;13.42;51.60;100917.25;1821603;78;20907;-88
2022/05/26 01:12:38;;;;;;;1.90;1.80;;;;;;;13.43;51.71;100913.69;1821651;78;20833;-88
2022/05/26 01:15:08;;;;;;;2.77;1.82;;;;;;;13.44;51.61;100918.47;1821573;78;21408;-87
2022/05/26 01:18:16;;;;;;;2.42;2.00;;;;;;;13.44;51.16;100919.78;1821622;78;20982;-88
2022/05/26 01:20:52;;;;;;;2.25;2.00;;;;;;;13.44;51.16;100919.78;1821666;78;21176;-87
2022/05/26 01:23:45;;;;;;;3.65;1.87;;;;;;;13.44;51.52;100922.42;1821624;78;20872;-87
2022/05/26 01:26:46;;;;;;;1.92;1.65;;;;;;;13.43;51.53;100923.38;1820695;78;20931;-85
2022/05/26 01:29:51;;;;;;;2.67;1.92;;;;;;;13.41;51.58;100913.42;1821298;78;20951;-87
2022/05/26 01:32:47;;;;;;;3.33;1.80;;;;;;;13.40;51.65;100913.03;1821662;78;20872;-87
2022/05/26 01:35:30;;;;;;;1.70;1.40;;;;;;;13.38;51.61;100912.29;1799002;78;23756;-87
2022/05/26 01:38:24;;;;;;;4.78;2.00;;;;;;;13.37;51.58;100912.77;1821753;78;21326;-87
2022/05/26 01:41:34;;;;;;;5.78;2.08;;;;;;;13.35;51.54;100909.88;1822108;78;20927;-88
2022/05/26 01:44:19;;;;;;;4.90;1.85;;;;;;;13.32;51.64;100907.42;1824507;77;20942;-87
2022/05/26 01:46:45;;;;;;;4.65;1.70;;;;;;;13.27;51.81;100901.98;1824552;78;20939;-86
2022/05/26 01:49:50;;;;;;;4.62;2.30;;;;;;;13.23;51.97;100905.77;1822060;78;21121;-87
2022/05/26 01:52:27;;;;;;;8.70;1.90;;;;;;;13.19;51.94;100907.39;1821481;78;20911;-87
2022/05/26 01:55:07;;;;;;;2.92;1.80;;;;;;;13.12;52.17;100904.31;1821647;78;20974;-86
2022/05/26 01:57:57;;;;;;;3.63;2.20;;;;;;;13.07;52.29;100903.75;1821524;78;20880;-87
2022/05/26 02:00:24;;;;;;;6.80;2.00;;;;;;;13.02;52.39;100910.64;1821563;78;20938;-85
2022/05/26 02:03:02;;;;;;;3.70;1.80;;;;;;;12.98;52.86;100914.45;1821535;78;21385;-85
2022/05/26 02:05:32;;;;;;;7.08;2.47;;;;;;;12.96;52.98;100911.52;1821463;78;20926;-86
2022/05/26 02:08:06;;;;;;;4.03;1.82;;;;;;;12.92;52.68;100914.00;1821612;78;20891;-88
2022/05/26 02:10:43;;;;;;;2.40;1.80;;;;;;;12.91;52.72;100913.13;1823159;78;21050;-87
2022/05/26 02:13:30;;;;;;;2.45;1.85;;;;;;;12.88;52.68;100921.24;1821718;78;20840;-87
2022/05/26 02:16:07;;;;;;;6.10;1.87;;;;;;;12.83;52.90;100912.33;1821383;78;21236;-86
2022/05/26 02:18:40;;;;;;;2.30;2.10;;;;;;;12.81;53.11;100918.16;1821459;78;20879;-85
2022/05/26 02:21:14;;;;;;;3.08;2.55;;;;;;;12.79;53.38;100918.73;1821596;78;20907;-87
2022/05/26 02:23:47;;;;;;;;;;;;;;;12.76;53.67;100916.31;1824185;78;21496;-86
2022/05/26 02:26:14;;;;;;;2.22;1.82;;;;;;;12.75;53.59;100911.97;1783796;78;20109;-87
2022/05/26 02:31:28;;;;;;;3.05;2.10;;;;;;;12.70;53.57;100922.44;1821423;78;20856;-86
2022/05/26 02:33:58;;;;;;;3.20;2.05;;;;;;;12.69;53.56;100922.88;1821598;78;22154;-86
2022/05/26 02:36:25;;;;;;;2.62;1.67;;;;;;;12.68;53.64;100927.79;1821466;78;20900;-86
2022/05/26 02:38:53;;;;;;;4.33;2.10;;;;;;;12.66;54.06;100936.25;1816447;78;20998;-87
2022/05/26 02:41:23;;;;;;;3.47;2.00;;;;;;;12.67;54.40;100927.40;1821538;78;21154;-85
2022/05/26 02:43:50;;;;;;;2.55;2.20;;;;;;;12.68;54.58;100930.42;1821388;78;20888;-86
2022/05/26 02:46:55;;;;;;;1.72;1.60;;;;;;;12.68;54.96;100926.47;1821675;78;20982;-86
2022/05/26 02:49:39;;;;;;;4.40;2.02;;;;;;;12.66;54.59;100933.62;1779013;78;28090;-85
2022/05/26 02:52:12;;;;;;;4.37;1.37;;;;;;;12.68;54.10;100934.84;1823945;77;20872;-85
2022/05/26 02:55:13;;;;;;;2.52;2.33;;;;;;;12.67;53.93;100933.14;1822791;78;21287;-86
2022/05/26 02:58:11;;;;;;;3.50;2.72;;;;;;;12.69;53.88;100929.94;1821405;78;20887;-86
2022/05/26 03:01:00;;;;;;;3.92;1.98;;;;;;;12.70;54.04;100920.64;1821442;78;20864;-86
2022/05/26 03:03:35;;;;;;;7.15;2.75;;;;;;;12.72;54.14;100912.66;1821415;78;20923;-87
2022/05/26 03:06:23;;;;;;;2.40;2.20;;;;;;;12.74;54.26;100921.27;1821337;78;21500;-86
2022/05/26 03:08:50;;;;;;;6.92;2.05;;;;;;;12.76;54.18;100916.31;1821540;78;21826;-85
2022/05/26 03:11:20;;;;;;;5.78;2.02;;;;;;;12.80;54.32;100918.25;1816678;78;21009;-85
2022/05/26 03:13:47;;;;;;;6.72;2.12;;;;;;;12.83;54.46;100913.65;1821433;78;20876;-87
2022/05/26 03:16:14;;;;;;;3.25;2.33;;;;;;;12.88;54.37;100923.88;1821441;78;20892;-85
2022/05/26 03:18:40;;;;;;;3.52;2.10;;;;;;;12.94;54.46;100922.62;1821520;78;21476;-86
2022/05/26 03:21:07;;;;;;;2.25;2.05;;;;;;;13.00;54.34;100920.91;1821382;78;21117;-86
2022/05/26 03:23:36;;;;;;;3.10;2.42;;;;;;;13.05;54.18;100917.05;1821428;78;20963;-88
2022/05/26 03:26:04;;;;;;;6.80;2.90;;;;;;;13.13;54.27;100923.11;1821365;78;21452;-87
2022/05/26 03:28:31;;;;;;;3.35;2.75;;;;;;;13.20;54.08;100927.02;1821411;78;20922;-85
2022/05/26 03:30:58;;;;;;;5.53;2.58;;;;;;;13.28;54.02;100923.92;1821514;78;21297;-87
2022/05/26 03:33:26;;;;;;;3.27;1.98;;;;;;;13.35;54.07;100927.00;1822792;78;21137;-86
2022/05/26 03:41:27;;;;;;;2.72;2.45;;;;;;;13.58;54.22;100918.84;1822004;78;20998;-87
2022/05/26 03:43:57;;;;;;;4.22;2.50;;;;;;;13.66;54.27;100921.82;1822856;78;20928;-88
2022/05/26 03:46:25;;;;;;;5.05;2.47;;;;;;;13.72;54.27;100916.13;1825016;78;21224;-87
2022/05/26 03:48:52;;;;;;;3.30;2.55;;;;;;;13.78;54.12;100913.05;1826729;78;20919;-86
2022/05/26 03:51:19;;;;;;;3.77;2.10;;;;;;;13.87;54.12;100911.58;1827768;78;20879;-86
2022/05/26 03:53:46;;;;;;;3.40;1.92;;;;;;;13.95;54.31;100911.91;1828284;77;20943;-85
2022/05/26 03:56:14;;;;;;;3.55;2.55;;;;;;;14.03;54.40;100903.47;1828520;77;20990;-85
2022/05/26 03:58:43;;;;;;;3.05;2.75;;;;;;;14.13;53.99;100909.77;1800907;78;20927;-84
2022/05/26 04:01:11;;;;;;;3.42;2.75;;;;;;;14.23;53.95;100904.70;1825537;78;20867;-84
2022/05/26 04:03:38;;;;;;;10.80;4.70;;;;;;;14.33;54.13;100904.41;1825406;78;20864;-85
2022/05/26 04:06:04;;;;;;;11.60;5.40;;;;;;;14.47;54.01;100906.05;1825648;78;20978;-87
2022/05/26 04:08:31;;;;;;;4.22;2.80;;;;;;;14.75;53.85;100887.77;1825721;78;20935;-86
2022/05/26 04:10:58;;;;;;;5.72;2.77;;;;;;;14.75;53.85;100887.77;1826269;78;21258;-88
2022/05/26 04:13:32;;;;;;;2.60;2.40;;;;;;;15.00;53.67;100891.24;1827405;77;20994;-85
2022/05/26 04:15:59;;;;;;;5.12;2.98;;;;;;;15.31;53.46;100889.78;1828397;78;20880;-85
2022/05/26 04:18:27;;;;;;;4.05;2.40;;;;;;;15.74;52.09;100883.42;1828373;77;20994;-85
2022/05/26 04:21:06;;;;;;;7.65;2.15;;;;;;;16.27;51.24;100881.95;1826817;78;20938;-86
2022/05/26 04:23:33;;;;;;;2.87;1.60;;;;;;;16.86;49.84;100880.27;1827166;78;21764;-84
2022/05/26 04:26:00;;;;;;;5.22;1.67;;;;;;;17.50;48.76;100876.69;1828271;78;20875;-86
2022/05/26 04:28:27;;;;;;;4.70;1.80;;;;;;;18.09;47.53;100880.47;1828286;78;20896;-86
2022/05/26 04:30:55;;;;;;;6.12;1.52;;;;;;;18.64;46.47;100880.05;1827358;78;20963;-87
2022/05/26 04:33:22;;;;;;;3.02;2.00;;;;;;;19.14;45.31;100875.11;1825174;78;20947;-85
2022/05/26 04:35:49;;;;;;;4.85;1.85;;;;;;;19.57;44.32;100873.30;1812660;78;21275;-86
2022/05/26 04:38:15;;;;;;;4.80;1.60;;;;;;;19.97;43.30;100874.03;1792668;80;21449;-86
2022/05/26 04:40:45;;;;;;;4.30;1.85;;;;;;;20.28;42.88;100871.91;1792738;79;20931;-86
2022/05/26 04:43:12;;;;;;;2.58;1.70;;;;;;;20.64;42.42;100866.66;1792498;79;21010;-87
2022/05/26 04:45:39;;;;;;;1.57;1.10;;;;;;;20.98;41.53;100864.63;1793359;80;20962;-86
2022/05/26 04:48:07;;;;;;;3.10;1.45;;;;;;;21.28;41.18;100867.37;1795760;79;21785;-88
2022/05/26 04:50:34;;;;;;;3.80;2.58;;;;;;;21.58;40.68;100867.42;1795817;80;21491;-86
2022/05/26 04:53:01;;;;;;;3.50;1.80;;;;;;;21.80;40.02;100863.37;1795275;80;21464;-89
2022/05/26 04:55:28;;;;;;;2.92;1.30;;;;;;;21.98;39.47;100860.61;1795503;79;20915;-85
2022/05/26 04:57:55;;;;;;;4.97;1.40;;;;;;;22.12;39.26;100868.50;1797357;79;20891;-86
2022/05/26 05:00:22;;;;;;;2.52;1.05;;;;;;;22.29;39.16;100870.77;1798217;80;21094;-84
2022/05/26 05:02:50;;;;;;;4.35;2.83;;;;;;;22.55;38.68;100876.86;1797591;79;20876;-86
2022/05/26 05:05:16;;;;;;;1.92;1.10;;;;;;;22.80;37.94;100867.53;1794825;80;20888;-86
2022/05/26 05:07:44;;;;;;;1.27;0.95;;;;;;;22.87;37.96;100867.70;1794852;80;20942;-86
2022/05/26 05:10:11;;;;;;;6.25;1.77;;;;;;;22.92;37.53;100866.22;1794884;79;20880;-86
2022/05/26 05:12:40;;;;;;;6.03;1.55;;;;;;;22.95;37.56;100859.18;1794747;80;21096;-87
2022/05/26 05:15:22;;;;;;;4.12;1.25;;;;;;;23.07;36.71;100859.70;1794950;79;20856;-84
2022/05/26 05:17:49;;;;;;;7.03;1.27;;;;;;;23.30;37.05;100859.88;1794851;79;20883;-85
2022/05/26 05:20:16;;;;;;;2.62;1.17;;;;;;;23.63;36.68;100851.75;1794775;79;21018;-85
2022/05/26 05:22:48;;;;;;;3.42;1.07;;;;;;;23.92;36.29;100853.02;1794852;80;20982;-85
2022/05/26 05:25:30;;;;;;;2.22;1.20;;;;;;;24.16;35.31;100848.89;1794636;80;21095;-89
2022/05/26 05:28:04;;;;;;;3.60;1.20;;;;;;;24.33;35.04;100848.30;1794798;79;20919;-86
2022/05/26 05:30:40;;;;;;;6.40;1.20;;;;;;;24.49;34.47;100839.86;1794789;80;20923;-87
2022/05/26 05:33:23;;;;;;;2.15;0.80;;;;;;;24.64;33.65;100840.77;1794842;80;21424;-86
2022/05/26 05:35:56;;;;;;;;;;;;;;;24.74;33.57;100839.17;1797594;79;20918;-86
2022/05/26 05:38:24;;;;;;;3.33;1.40;;;;;;;24.86;33.02;100836.41;1786028;80;20416;-86
2022/05/26 05:40:51;;;;;;;6.08;1.10;;;;;;;24.94;33.00;100839.00;1766537;80;21417;-86
2022/05/26 05:43:17;;;;;;;8.90;1.85;;;;;;;24.95;32.41;100829.13;1794849;79;21515;-85
2022/05/26 05:45:45;;;;;;;2.10;1.12;;;;;;;25.00;31.79;100837.45;1794625;79;20946;-87
2022/05/26 05:48:12;;;;;;;4.50;1.42;;;;;;;25.02;31.66;100831.40;1795085;79;20978;-85
2022/05/26 05:50:39;;;;;;;5.92;1.25;;;;;;;25.19;31.90;100829.41;1795006;79;21144;-87
2022/05/26 05:53:06;;;;;;;2.08;1.30;;;;;;;25.32;31.31;100847.58;1794790;79;21449;-86
2022/05/26 05:55:33;;;;;;;5.28;1.40;;;;;;;25.27;30.69;100831.20;1794660;79;20938;-87
2022/05/26 05:58:00;;;;;;;6.60;1.70;;;;;;;25.15;30.85;100829.45;1795446;80;20959;-88
2022/05/26 06:00:27;;;;;;;10.72;2.22;;;;;;;25.00;31.49;100824.86;1795915;80;20911;-89
2022/05/26 06:02:54;;;;;;;8.20;1.67;;;;;;;24.89;31.32;100823.96;1797416;79;21157;-89
2022/05/26 06:05:21;;;;;;;4.08;2.00;;;;;;;24.70;30.67;100822.63;1797805;79;21009;-88
2022/05/26 06:07:48;;;;;;;4.90;2.20;;;;;;;24.50;30.57;100817.39;1797659;80;20891;-89
2022/05/26 06:10:15;;;;;;;43.15;12.23;;;;;;;24.32;30.63;100824.34;1795313;80;20939;-88
2022/05/26 06:12:46;;;;;;;11.08;4.05;;;;;;;24.25;31.08;100827.41;1794584;79;21405;-89
2022/05/26 06:15:13;;;;;;;4.83;1.85;;;;;;;24.39;31.49;100814.61;1794922;79;21927;-89
2022/05/26 06:17:40;;;;;;;5.67;2.12;;;;;;;24.59;31.29;100813.66;1794793;79;20859;-87
2022/05/26 06:20:10;;;;;;;2.27;1.47;;;;;;;24.85;30.47;100809.23;1796215;79;20848;-86
2022/05/26 06:22:43;;;;;;;3.52;1.30;;;;;;;25.02;30.47;100814.78;1797496;80;20860;-86
2022/05/26 06:25:10;;;;;;;3.63;1.33;;;;;;;25.20;30.58;100806.42;1797156;79;21408;-86
2022/05/26 06:30:26;;;;;;;14.38;5.28;;;;;;;25.44;29.17;100799.95;1794947;80;20966;-89
2022/05/26 06:38:25;;;;;;;25.50;7.75;;;;;;;25.96;28.01;100793.31;1795044;79;20903;-89
2022/05/26 06:40:52;;;;;;;24.10;4.78;;;;;;;26.15;27.82;100790.54;1795039;79;21410;-86
2022/05/26 06:43:20;;;;;;;23.50;6.30;;;;;;;26.28;27.22;100793.37;1795127;80;20942;-89
2022/05/26 06:45:47;;;;;;;11.95;2.58;;;;;;;26.43;27.12;100792.77;1783633;79;20871;-87
2022/05/26 06:48:15;;;;;;;7.97;2.70;;;;;;;26.60;27.20;100793.91;1769515;80;21456;-87
2022/05/26 06:50:43;;;;;;;24.10;4.72;;;;;;;26.76;27.57;100791.45;1789593;80;20998;-88
2022/05/26 06:53:10;;;;;;;23.52;4.42;;;;;;;26.91;27.32;100789.51;1789398;79;21156;-89
2022/05/26 06:55:39;;;;;;;2.95;1.92;;;;;;;26.96;26.23;100791.09;1789506;79;21547;-88
2022/05/26 06:58:06;;;;;;;42.53;9.85;;;;;;;26.95;26.38;100794.00;1789314;79;20935;-86
2022/05/26 07:00:32;;;;;;;27.20;4.28;;;;;;;27.03;27.10;100785.23;1789645;79;20888;-88
2022/05/26 07:03:00;;;;;;;28.90;6.92;;;;;;;27.12;26.21;100781.88;1790462;79;20994;-88
2022/05/26 07:05:27;;;;;;;7.10;1.45;;;;;;;27.19;25.83;100785.96;1789711;79;21170;-88
2022/05/26 07:07:54;;;;;;;8.40;2.25;;;;;;;27.20;24.94;100784.42;1789967;80;20943;-89
2022/05/26 07:10:22;;;;;;;7.03;1.65;;;;;;;27.23;24.35;100782.70;1791840;79;20955;-86
2022/05/26 07:12:49;;;;;;;1.85;1.12;;;;;;;27.16;24.57;100783.67;1791674;79;20940;-86
2022/05/26 07:15:16;;;;;;;11.70;2.65;;;;;;;27.16;25.03;100779.11;1790366;80;21419;-87
2022/05/26 07:17:47;;;;;;;3.37;1.40;;;;;;;27.31;25.52;100780.38;1789833;80;21220;-86
2022/05/26 07:20:15;;;;;;;5.80;1.50;;;;;;;27.49;25.73;100786.07;1790526;79;20978;-89
2022/05/26 07:22:43;;;;;;;9.68;3.10;;;;;;;27.71;25.37;100779.23;1790144;80;20958;-88
2022/05/26 07:25:10;;;;;;;7.47;2.95;;;;;;;27.85;25.65;100777.45;1790441;79;21313;-87
2022/05/26 07:27:38;;;;;;;8.48;3.22;;;;;;;27.93;24.63;100775.11;1792331;80;20860;-89
2022/05/26 07:30:06;;;;;;;14.68;5.70;;;;;;;27.88;24.75;100778.38;1791476;79;21169;-86
2022/05/26 07:32:34;;;;;;;7.35;3.22;;;;;;;27.83;24.30;100768.70;1789761;80;20936;-88
2022/05/26 07:35:02;;;;;;;5.40;2.42;;;;;;;27.79;23.87;100783.61;1789909;79;20903;-88
2022/05/26 07:43:08;;;;;;;7.33;2.12;;;;;;;27.16;23.60;100799.31;1789931;80;22037;-88
2022/05/26 07:45:36;;;;;;;4.72;1.45;;;;;;;26.84;23.96;100800.22;1789512;80;20935;-89
2022/05/26 07:48:04;;;;;;;3.17;1.10;;;;;;;26.60;24.00;100796.59;1792466;79;21069;-88
2022/05/26 07:50:33;;;;;;;2.47;1.02;;;;;;;26.32;24.58;100801.87;1794630;79;20875;-87
2022/05/26 07:53:00;;;;;;;2.27;0.80;;;;;;;25.96;24.88;100801.38;1794308;79;21049;-88
2022/05/26 07:55:27;;;;;;;2.67;0.75;;;;;;;25.57;25.88;100795.28;1794401;79;21212;-87
2022/05/26 07:57:56;;;;;;;2.47;1.27;;;;;;;25.26;26.73;100782.53;1794641;79;20951;-87
2022/05/26 08:00:23;;;;;;;3.27;2.12;;;;;;;24.92;27.74;100796.78;1792711;80;21049;-86
2022/05/26 08:02:50;;;;;;;4.15;3.55;;;;;;;24.68;28.55;100794.28;1792574;80;20942;-89
2022/05/26 08:05:17;;;;;;;3.58;1.92;;;;;;;24.52;29.40;100804.64;1792657;80;20883;-87
2022/05/26 08:07:44;;;;;;;5.08;2.62;;;;;;;24.34;29.88;100804.90;1793096;79;21099;-87
2022/05/26 08:10:11;;;;;;;3.58;1.42;;;;;;;24.16;30.66;100811.88;1792591;79;20884;-87
2022/05/26 08:12:42;;;;;;;4.03;1.60;;;;;;;23.98;31.19;100807.62;1792991;80;20855;-87
2022/05/26 08:15:10;;;;;;;6.45;1.75;;;;;;;23.77;31.39;100796.17;1792846;80;20986;-88
2022/05/26 08:17:39;;;;;;;3.42;1.30;;;;;;;23.55;31.82;100807.11;1795439;78;20840;-85
2022/05/26 08:20:06;;;;;;;4.17;1.20;;;;;;;23.30;32.03;100808.16;1795408;79;21117;-88
2022/05/26 08:22:33;;;;;;;2.60;1.42;;;;;;;23.04;32.42;100797.19;1778873;80;21006;-87
2022/05/26 08:25:00;;;;;;;5.65;1.45;;;;;;;22.89;32.79;100809.03;1793094;80;20848;-86
2022/05/26 08:27:27;;;;;;;6.65;1.45;;;;;;;22.74;33.38;100810.70;1792850;79;20875;-88
2022/05/26 08:29:54;;;;;;;3.45;1.30;;;;;;;22.65;33.86;100805.02;1792829;79;20995;-90
2022/05/26 08:32:22;;;;;;;2.35;1.40;;;;;;;22.55;33.42;100804.69;1792870;80;22323;-89
2022/05/26 08:34:49;;;;;;;3.30;0.65;;;;;;;22.43;33.45;100814.52;1792862;80;20891;-89
2022/05/26 08:37:19;;;;;;;7.05;1.52;;;;;;;22.28;33.65;100810.34;1792953;79;20931;-88
2022/05/26 08:39:46;;;;;;;5.12;1.22;;;;;;;22.15;34.35;100815.60;1792816;80;20939;-88
2022/05/26 08:42:25;;;;;;;2.83;1.17;;;;;;;22.07;34.50;100808.89;1793018;79;20911;-87
2022/05/26 08:44:55;;;;;;;4.50;1.10;;;;;;;22.01;33.40;100818.91;1792818;79;21134;-88
2022/05/26 08:47:25;;;;;;;6.35;1.32;;;;;;;21.93;33.12;100813.53;1790951;79;20883;-86
2022/05/26 08:50:08;;;;;;;3.15;1.98;;;;;;;21.86;33.41;100815.18;1789202;79;20967;-87
2022/05/26 08:52:40;;;;;;;4.87;1.60;;;;;;;21.86;33.34;100815.18;1789287;79;20911;-87
2022/05/26 08:55:15;;;;;;;3.47;1.15;;;;;;;21.89;33.46;100822.86;1789580;80;21385;-87
2022/05/26 08:58:01;;;;;;;4.45;1.27;;;;;;;21.94;33.19;100813.37;1789411;80;21742;-87
2022/05/26 09:00:28;;;;;;;4.70;1.55;;;;;;;22.03;33.53;100812.05;1789527;80;21562;-90
2022/05/26 09:02:59;;;;;;;5.47;1.67;;;;;;;22.11;32.59;100808.08;1789490;79;20975;-88
2022/05/26 09:05:35;;;;;;;4.83;1.30;;;;;;;22.15;31.98;100814.27;1770330;80;21388;-87
2022/05/26 09:13:57;;;;;;;3.52;0.93;;;;;;;22.09;31.90;100805.56;1789519;80;20939;-86
2022/05/26 09:16:24;;;;;;;5.55;1.40;;;;;;;22.08;32.34;100805.74;1789590;80;21002;-86
2022/05/26 09:19:12;;;;;;;3.42;1.00;;;;;;;22.04;32.47;100791.87;1790033;80;20883;-88
2022/05/26 09:21:40;;;;;;;3.83;1.65;;;;;;;21.99;33.03;100792.86;1789928;79;20919;-87
2022/05/26 09:24:26;;;;;;;2.87;1.15;;;;;;;21.92;33.37;100792.67;1791518;80;21224;-87
2022/05/26 09:26:59;;;;;;;3.80;1.00;;;;;;;21.88;33.67;100788.66;1791603;79;20978;-88
2022/05/26 09:29:32;;;;;;;5.50;1.47;;;;;;;21.85;33.79;100778.28;1790527;79;20899;-86
2022/05/26 09:32:00;;;;;;;1.50;1.10;;;;;;;21.82;33.81;100782.61;1789357;80;20907;-86
2022/05/26 09:34:32;;;;;;;5.90;1.95;;;;;;;21.80;33.87;100773.92;1789788;79;20895;-89
2022/05/26 09:37:03;;;;;;;4.72;1.20;;;;;;;21.76;32.82;100777.08;1758812;80;22548;-88
2022/05/26 09:39:37;;;;;;;2.60;1.27;;;;;;;21.73;32.96;100774.24;1789552;79;20891;-90
2022/05/26 09:42:08;;;;;;;6.25;1.87;;;;;;;21.69;32.31;100772.89;1789416;80;20982;-87
2022/05/26 09:44:59;;;;;;;4.92;1.67;;;;;;;21.63;32.48;100758.37;1786688;80;20868;-88
2022/05/26 09:47:37;;;;;;;5.12;1.50;;;;;;;21.56;32.49;100763.98;1778883;79;21471;-87
2022/05/26 09:50:09;;;;;;;7.87;2.80;;;;;;;21.46;32.80;100761.45;1760903;81;21148;-87
2022/05/26 09:52:49;;;;;;;3.77;0.95;;;;;;;21.40;32.51;100762.05;1760140;81;20887;-90
2022/05/26 09:55:28;;;;;;;2.83;1.50;;;;;;;21.37;32.78;100762.37;1760207;80;21368;-87
2022/05/26 09:58:14;;;;;;;9.08;1.47;;;;;;;21.35;32.96;100758.20;1759991;80;20938;-88
2022/05/26 10:00:46;;;;;;;7.70;1.42;;;;;;;21.30;32.81;100755.51;1760175;81;21017;-88
2022/05/26 10:03:34;;;;;;;7.42;2.15;;;;;;;21.21;32.95;100755.60;1760203;81;21149;-87
2022/05/26 10:06:30;;;;;;;6.42;1.98;;;;;;;21.16;33.36;100756.58;1760190;80;20859;-88
2022/05/26 10:09:24;;;;;;;9.43;1.30;;;;;;;21.11;33.88;100759.22;1760193;81;21542;-86
2022/05/26 10:12:08;;;;;;;9.45;1.55;;;;;;;21.05;34.00;100750.51;1760484;81;20947;-88
2022/05/26 10:14:56;;;;;;;2.98;1.40;;;;;;;20.96;34.58;100747.45;1760066;80;20927;-86
2022/05/26 10:17:46;;;;;;;3.98;1.55;;;;;;;20.86;35.27;100752.06;1751588;81;21306;-87
2022/05/26 10:20:43;;;;;;;3.55;2.30;;;;;;;20.78;35.44;100753.33;1751679;81;21420;-87
2022/05/26 10:23:22;;;;;;;9.05;3.47;;;;;;;;;;1760077;81;20839;-90
2022/05/26 10:26:01;;;;;;;4.00;2.15;;;;;;;20.56;36.45;100754.12;1760198;81;21456;-89
2022/05/26 10:28:59;;;;;;;7.42;2.62;;;;;;;20.51;36.79;100753.75;1760650;81;21072;-86
2022/05/26 10:32:00;;;;;;;6.60;3.35;;;;;;;20.44;36.73;100738.87;1762893;80;21212;-85
2022/05/26 10:34:54;;;;;;;2.37;2.17;;;;;;;20.36;37.08;100720.66;1761137;81;20891;-85
2022/05/26 10:38:08;;;;;;;4.63;2.87;;;;;;;20.28;37.48;100712.94;1760616;81;20965;-87
2022/05/26 10:41:14;;;;;;;3.52;1.70;;;;;;;20.24;38.22;100706.74;1760427;81;21431;-86
2022/05/26 10:44:07;;;;;;;11.33;3.15;;;;;;;20.22;38.62;100710.88;1741956;82;20991;-87
2022/05/26 10:46:38;;;;;;;5.55;1.52;;;;;;;20.20;40.11;100727.50;1741908;82;21472;-88
2022/05/26 10:49:16;;;;;;;2.17;1.60;;;;;;;20.07;42.72;100725.70;1731026;81;20987;-88
2022/05/26 10:51:54;;;;;;;2.00;1.42;;;;;;;19.87;43.46;100727.16;1733578;80;20959;-88
2022/05/26 10:54:41;;;;;;;2.75;2.12;;;;;;;19.64;44.15;100727.22;1757207;80;20959;-87
2022/05/26 10:57:22;;;;;;;9.50;1.70;;;;;;;19.39;46.04;100730.08;1756194;81;20876;-87
2022/05/26 11:02:53;;;;;;;4.20;2.02;;;;;;;18.70;50.66;100753.78;1854738;76;22630;-87
2022/05/26 11:05:34;;;;;;;6.35;1.60;;;;;;;18.33;52.41;100764.62;1822391;78;20875;-88
2022/05/26 11:08:22;;;;;;;3.10;1.17;;;;;;;17.99;54.06;100766.34;1822439;78;21515;-87
2022/05/26 11:11:06;;;;;;;1.60;1.32;;;;;;;17.68;55.09;100765.52;1822202;78;20848;-88
2022/05/26 11:13:58;;;;;;;3.58;3.20;;;;;;;17.42;56.03;100770.94;1810500;78;28205;-87
2022/05/26 11:19:40;;;;;;;6.22;3.50;;;;;;;17.02;57.76;100784.95;1822279;78;20931;-87
2022/05/26 11:22:06;;;;;;;9.13;5.17;;;;;;;16.80;57.93;100784.09;1822370;78;21130;-87
2022/05/26 11:24:35;;;;;;;4.30;2.67;;;;;;;16.71;58.65;100784.83;1764942;78;21472;-87
2022/05/26 11:27:12;;;;;;;4.78;1.80;;;;;;;16.58;58.74;100781.89;1822175;78;21489;-87
2022/05/26 11:29:56;;;;;;;1.92;1.70;;;;;;;16.46;59.20;100774.95;1822131;78;20864;-87
2022/05/26 11:38:35;;;;;;;3.10;1.62;;;;;;;16.15;60.89;100793.81;1824445;78;20919;-86
2022/05/26 11:41:09;;;;;;;3.50;1.62;;;;;;;16.07;61.28;100793.58;1823078;77;20955;-88
2022/05/26 11:44:10;;;;;;;4.05;1.45;;;;;;;16.03;61.45;100795.65;1822964;78;20887;-89
2022/05/26 11:46:49;;;;;;;2.98;1.65;;;;;;;15.97;61.70;100800.59;1822422;78;20840;-89
2022/05/26 11:49:47;;;;;;;4.03;1.80;;;;;;;15.91;62.07;100806.70;1822473;78;21211;-88
2022/05/26 11:52:28;;;;;;;2.58;1.42;;;;;;;15.87;62.34;100819.81;1822231;78;20935;-88
2022/05/26 11:55:03;;;;;;;1.45;1.32;;;;;;;15.85;62.71;100824.86;1822845;78;20907;-86
2022/05/26 11:57:45;;;;;;;2.50;1.45;;;;;;;15.82;63.01;100825.12;1822285;78;20923;-87
2022/05/26 12:00:19;;;;;;;3.55;2.25;;;;;;;15.80;63.15;100819.94;1821837;78;21018;-89
2022/05/26 12:02:51;;;;;;;2.55;1.87;;;;;;;15.77;63.16;100829.45;1825257;78;21246;-87
2022/05/26 12:05:35;;;;;;;2.70;1.92;;;;;;;15.74;63.11;100826.57;1825501;77;20871;-87
2022/05/26 12:08:05;;;;;;;2.45;1.77;;;;;;;15.73;62.98;100830.16;1825006;78;21463;-89
2022/05/26 12:10:42;;;;;;;2.02;1.85;;;;;;;15.70;63.06;100836.98;1825388;77;20938;-89
2022/05/26 12:13:27;;;;;;;6.42;3.87;;;;;;;15.70;63.48;100838.31;1824860;77;20907;-85
2022/05/26 12:16:19;;;;;;;10.05;6.87;;;;;;;15.71;63.82;100845.78;1819844;78;21326;-86
2022/05/26 12:19:08;;;;;;;5.83;5.15;;;;;;;15.67;64.33;100839.88;1824962;78;20899;-87
2022/05/26 12:21:46;;;;;;;4.30;2.42;;;;;;;15.67;64.33;100839.88;1796013;78;21393;-88
2022/05/26 12:24:37;;;;;;;3.92;3.52;;;;;;;15.61;65.28;100841.67;1824807;78;20895;-86
2022/05/26 12:27:05;;;;;;;3.40;2.27;;;;;;;15.52;66.19;100845.03;1824909;78;20867;-86
2022/05/26 12:29:52;;;;;;;2.25;1.85;;;;;;;15.39;66.72;100835.05;1824973;78;21183;-86
2022/05/26 12:32:25;;;;;;;3.85;1.98;;;;;;;15.27;66.92;100828.42;1824685;77;20923;-85
2022/05/26 12:35:10;;;;;;;4.05;1.70;;;;;;;15.17;66.92;100817.34;1825201;77;21000;-85
2022/05/26 12:37:54;;;;;;;3.58;2.67;;;;;;;15.03;67.15;100811.77;1825173;77;20856;-84